N35647 KFDY-KFNT
Flight info
| Callsign | N35647 |
|---|---|
| Flight time | 0h 42m |
| Altitude | 7000 |
| Route | FBC SVM/N0178F080 |
| Aircraft | C208/L-SDFGR/C |
Departure
| Time | 2026-05-05 06:17 |
|---|---|
| Airport | Findlay Airport (KFDY) |
Arrival
| Time | 2026-05-05 07:00 |
|---|---|
| Airport | Bishop International Airport (KFNT) |
| Time | Latitude | Longitude | Altitude | Speed | Heading |
|---|---|---|---|---|---|
| 2026-05-05 06:14 | 41.01453 | -83.67251 | 818 ft | 0 kts | 346° |
| 2026-05-05 06:15 | 41.01454 | -83.67251 | 818 ft | 0 kts | 346° |
| 2026-05-05 06:15 | 41.01482 | -83.67235 | 818 ft | 9 kts | 58° |
| 2026-05-05 06:15 | 41.01519 | -83.67123 | 818 ft | 17 kts | 68° |
| 2026-05-05 06:15 | 41.01570 | -83.66943 | 818 ft | 24 kts | 70° |
| 2026-05-05 06:16 | 41.01605 | -83.66820 | 814 ft | 0 kts | 69° |
| 2026-05-05 06:16 | 41.01608 | -83.66808 | 816 ft | 5 kts | 79° |
| 2026-05-05 06:16 | 41.01572 | -83.66766 | 817 ft | 9 kts | 185° |
| 2026-05-05 06:17 | 41.01515 | -83.66866 | 818 ft | 39 kts | 246° |
| 2026-05-05 06:17 | 41.01301 | -83.67528 | 1076 ft | 96 kts | 244° |
| 2026-05-05 06:17 | 41.00947 | -83.68469 | 1249 ft | 136 kts | 239° |
| 2026-05-05 06:17 | 41.00322 | -83.69452 | 1444 ft | 148 kts | 208° |
| 2026-05-05 06:18 | 40.99420 | -83.70068 | 1792 ft | 141 kts | 217° |
| 2026-05-05 06:18 | 40.98721 | -83.70894 | 2183 ft | 131 kts | 227° |
| 2026-05-05 06:18 | 40.98113 | -83.71748 | 2554 ft | 124 kts | 230° |
| 2026-05-05 06:18 | 40.97541 | -83.72592 | 2926 ft | 121 kts | 233° |
| 2026-05-05 06:19 | 40.96987 | -83.73411 | 3296 ft | 118 kts | 232° |
| 2026-05-05 06:19 | 40.96445 | -83.74219 | 3671 ft | 117 kts | 234° |
| 2026-05-05 06:19 | 40.95917 | -83.75006 | 4013 ft | 114 kts | 235° |
| 2026-05-05 06:19 | 40.95396 | -83.75784 | 4392 ft | 112 kts | 235° |
| 2026-05-05 06:20 | 40.94876 | -83.76553 | 4768 ft | 113 kts | 233° |
| 2026-05-05 06:20 | 40.94450 | -83.77371 | 5147 ft | 111 kts | 263° |
| 2026-05-05 06:20 | 40.94851 | -83.78318 | 5555 ft | 140 kts | 310° |
| 2026-05-05 06:20 | 40.95918 | -83.78544 | 5944 ft | 178 kts | 357° |
| 2026-05-05 06:21 | 40.97129 | -83.78043 | 6343 ft | 183 kts | 6° |
| 2026-05-05 06:21 | 40.97930 | -83.77679 | 6583 ft | 183 kts | 6° |
| 2026-05-05 06:21 | 40.99136 | -83.77134 | 6941 ft | 183 kts | 7° |
| 2026-05-05 06:21 | 41.00397 | -83.76581 | 6995 ft | 198 kts | 7° |
| 2026-05-05 06:22 | 41.02193 | -83.75843 | 6999 ft | 208 kts | 6° |
| 2026-05-05 06:22 | 41.03132 | -83.75463 | 6999 ft | 210 kts | 7° |
| 2026-05-05 06:22 | 41.04538 | -83.74894 | 7001 ft | 211 kts | 7° |
| 2026-05-05 06:22 | 41.05928 | -83.74334 | 7001 ft | 212 kts | 7° |
| 2026-05-05 06:23 | 41.07339 | -83.73773 | 7000 ft | 212 kts | 6° |
| 2026-05-05 06:23 | 41.08738 | -83.73628 | 6990 ft | 196 kts | 342° |
| 2026-05-05 06:23 | 41.10110 | -83.73710 | 6992 ft | 199 kts | 348° |
| 2026-05-05 06:23 | 41.11505 | -83.73620 | 6991 ft | 202 kts | 353° |
| 2026-05-05 06:24 | 41.12903 | -83.73451 | 6991 ft | 201 kts | 354° |
| 2026-05-05 06:24 | 41.14300 | -83.73289 | 6990 ft | 201 kts | 354° |
| 2026-05-05 06:24 | 41.15695 | -83.73139 | 6987 ft | 201 kts | 353° |
| 2026-05-05 06:24 | 41.17093 | -83.72990 | 6983 ft | 201 kts | 353° |
| 2026-05-05 06:25 | 41.18489 | -83.72840 | 6992 ft | 201 kts | 354° |
| 2026-05-05 06:25 | 41.19886 | -83.72689 | 6991 ft | 201 kts | 353° |
| 2026-05-05 06:25 | 41.21280 | -83.72538 | 6990 ft | 201 kts | 354° |
| 2026-05-05 06:25 | 41.22673 | -83.72389 | 6986 ft | 201 kts | 354° |
| 2026-05-05 06:26 | 41.24067 | -83.72238 | 6984 ft | 201 kts | 353° |
| 2026-05-05 06:26 | 41.25443 | -83.72089 | 6979 ft | 201 kts | 354° |
| 2026-05-05 06:26 | 41.26840 | -83.71939 | 6980 ft | 201 kts | 353° |
| 2026-05-05 06:26 | 41.28232 | -83.71788 | 6978 ft | 201 kts | 354° |
| 2026-05-05 06:27 | 41.29627 | -83.71638 | 6973 ft | 201 kts | 354° |
| 2026-05-05 06:27 | 41.32420 | -83.71335 | 6972 ft | 201 kts | 354° |
| 2026-05-05 06:27 | 41.33816 | -83.71185 | 6968 ft | 201 kts | 354° |
| 2026-05-05 06:28 | 41.35211 | -83.71033 | 6968 ft | 201 kts | 354° |
| 2026-05-05 06:28 | 41.36590 | -83.70884 | 6966 ft | 201 kts | 354° |
| 2026-05-05 06:28 | 41.37984 | -83.70733 | 6966 ft | 201 kts | 354° |
| 2026-05-05 06:28 | 41.39379 | -83.70582 | 6977 ft | 201 kts | 355° |
| 2026-05-05 06:29 | 41.40770 | -83.70431 | 6964 ft | 199 kts | 356° |
| 2026-05-05 06:29 | 41.42152 | -83.70280 | 6965 ft | 199 kts | 356° |
| 2026-05-05 06:29 | 41.43533 | -83.70130 | 6965 ft | 198 kts | 355° |
| 2026-05-05 06:29 | 41.44887 | -83.69983 | 6964 ft | 197 kts | 355° |
| 2026-05-05 06:30 | 41.46257 | -83.69835 | 6966 ft | 198 kts | 356° |
| 2026-05-05 06:30 | 41.47637 | -83.69686 | 6966 ft | 198 kts | 355° |
| 2026-05-05 06:30 | 41.49016 | -83.69534 | 6988 ft | 198 kts | 355° |
| 2026-05-05 06:30 | 41.50387 | -83.69386 | 6987 ft | 198 kts | 355° |
| 2026-05-05 06:31 | 41.51761 | -83.69237 | 6987 ft | 198 kts | 355° |
| 2026-05-05 06:31 | 41.53134 | -83.69086 | 7000 ft | 197 kts | 356° |
| 2026-05-05 06:31 | 41.54487 | -83.68938 | 7065 ft | 195 kts | 355° |
| 2026-05-05 06:31 | 41.55828 | -83.68794 | 7068 ft | 196 kts | 356° |
| 2026-05-05 06:32 | 41.57194 | -83.68646 | 7069 ft | 197 kts | 356° |
| 2026-05-05 06:32 | 41.58564 | -83.68496 | 7068 ft | 197 kts | 356° |
| 2026-05-05 06:32 | 41.59933 | -83.68345 | 7069 ft | 197 kts | 356° |
| 2026-05-05 06:32 | 41.61296 | -83.68198 | 7079 ft | 196 kts | 356° |
| 2026-05-05 06:33 | 41.62657 | -83.68048 | 7078 ft | 196 kts | 357° |
| 2026-05-05 06:33 | 41.64017 | -83.67900 | 7061 ft | 196 kts | 357° |
| 2026-05-05 06:33 | 41.65377 | -83.67752 | 7062 ft | 196 kts | 356° |
| 2026-05-05 06:33 | 41.66740 | -83.67602 | 7062 ft | 196 kts | 357° |
| 2026-05-05 06:34 | 41.68085 | -83.67455 | 7064 ft | 196 kts | 356° |
| 2026-05-05 06:34 | 41.69444 | -83.67306 | 7065 ft | 196 kts | 356° |
| 2026-05-05 06:34 | 41.70806 | -83.67157 | 7064 ft | 197 kts | 357° |
| 2026-05-05 06:34 | 41.72172 | -83.67008 | 7064 ft | 196 kts | 356° |
| 2026-05-05 06:35 | 41.73535 | -83.66858 | 7062 ft | 196 kts | 356° |
| 2026-05-05 06:35 | 41.74900 | -83.66709 | 7064 ft | 196 kts | 357° |
| 2026-05-05 06:35 | 41.76260 | -83.66560 | 7063 ft | 196 kts | 357° |
| 2026-05-05 06:35 | 41.77617 | -83.66410 | 7063 ft | 196 kts | 356° |
| 2026-05-05 06:36 | 41.78958 | -83.66264 | 7064 ft | 196 kts | 357° |
| 2026-05-05 06:36 | 41.80318 | -83.66115 | 7065 ft | 196 kts | 357° |
| 2026-05-05 06:36 | 41.81677 | -83.65965 | 7066 ft | 196 kts | 358° |
| 2026-05-05 06:36 | 41.83036 | -83.65816 | 7063 ft | 195 kts | 358° |
| 2026-05-05 06:37 | 41.84389 | -83.65666 | 7062 ft | 195 kts | 358° |
| 2026-05-05 06:37 | 41.85737 | -83.65519 | 7061 ft | 194 kts | 358° |
| 2026-05-05 06:37 | 41.87083 | -83.65371 | 7062 ft | 194 kts | 357° |
| 2026-05-05 06:37 | 41.88432 | -83.65222 | 7060 ft | 194 kts | 358° |
| 2026-05-05 06:38 | 41.89777 | -83.65075 | 7060 ft | 194 kts | 358° |
| 2026-05-05 06:38 | 41.91103 | -83.64928 | 7060 ft | 194 kts | 358° |
| 2026-05-05 06:38 | 41.92448 | -83.64780 | 7057 ft | 193 kts | 358° |
| 2026-05-05 06:38 | 41.93789 | -83.64632 | 7057 ft | 193 kts | 357° |
| 2026-05-05 06:39 | 41.95130 | -83.64484 | 7049 ft | 194 kts | 358° |
| 2026-05-05 06:39 | 41.96475 | -83.64336 | 7049 ft | 193 kts | 358° |
| 2026-05-05 06:39 | 41.97817 | -83.64187 | 7049 ft | 193 kts | 357° |
| 2026-05-05 06:39 | 41.99160 | -83.64039 | 7050 ft | 194 kts | 358° |
| 2026-05-05 06:40 | 42.00514 | -83.63890 | 7047 ft | 194 kts | 358° |
| 2026-05-05 06:40 | 42.01843 | -83.63742 | 7046 ft | 194 kts | 358° |
| 2026-05-05 06:40 | 42.03194 | -83.63594 | 7044 ft | 195 kts | 357° |
| 2026-05-05 06:40 | 42.04548 | -83.63444 | 7043 ft | 195 kts | 357° |
| 2026-05-05 06:41 | 42.05900 | -83.63294 | 7041 ft | 194 kts | 358° |
| 2026-05-05 06:41 | 42.07249 | -83.63145 | 7038 ft | 194 kts | 357° |
| 2026-05-05 06:41 | 42.08597 | -83.62995 | 7038 ft | 194 kts | 357° |
| 2026-05-05 06:41 | 42.09945 | -83.62846 | 7036 ft | 195 kts | 358° |
| 2026-05-05 06:42 | 42.11292 | -83.62696 | 7034 ft | 194 kts | 357° |
| 2026-05-05 06:42 | 42.12640 | -83.62546 | 7031 ft | 195 kts | 357° |
| 2026-05-05 06:42 | 42.13993 | -83.62397 | 7033 ft | 195 kts | 357° |
| 2026-05-05 06:42 | 42.15332 | -83.62248 | 7032 ft | 195 kts | 357° |
| 2026-05-05 06:43 | 42.16682 | -83.62098 | 7031 ft | 194 kts | 357° |
| 2026-05-05 06:43 | 42.18031 | -83.61948 | 7032 ft | 195 kts | 357° |
| 2026-05-05 06:43 | 42.19385 | -83.61798 | 7044 ft | 195 kts | 358° |
| 2026-05-05 06:43 | 42.20737 | -83.61648 | 7044 ft | 194 kts | 357° |
| 2026-05-05 06:44 | 42.22085 | -83.61497 | 7043 ft | 194 kts | 357° |
| 2026-05-05 06:44 | 42.23435 | -83.61342 | 7044 ft | 196 kts | 357° |
| 2026-05-05 06:44 | 42.24800 | -83.61193 | 7043 ft | 197 kts | 356° |
| 2026-05-05 06:44 | 42.26170 | -83.61044 | 7044 ft | 198 kts | 356° |
| 2026-05-05 06:45 | 42.27535 | -83.60891 | 7043 ft | 199 kts | 357° |
| 2026-05-05 06:45 | 42.28916 | -83.60737 | 7042 ft | 199 kts | 357° |
| 2026-05-05 06:45 | 42.30295 | -83.60582 | 7041 ft | 198 kts | 356° |
| 2026-05-05 06:45 | 42.31672 | -83.60429 | 7043 ft | 198 kts | 356° |
| 2026-05-05 06:46 | 42.33048 | -83.60276 | 7046 ft | 198 kts | 356° |
| 2026-05-05 06:46 | 42.34407 | -83.60123 | 7040 ft | 198 kts | 356° |
| 2026-05-05 06:46 | 42.35783 | -83.59970 | 7039 ft | 198 kts | 356° |
| 2026-05-05 06:46 | 42.37161 | -83.59816 | 7040 ft | 199 kts | 356° |
| 2026-05-05 06:47 | 42.38538 | -83.59661 | 7039 ft | 199 kts | 357° |
| 2026-05-05 06:47 | 42.39917 | -83.59508 | 7036 ft | 199 kts | 356° |
| 2026-05-05 06:47 | 42.41280 | -83.59499 | 7024 ft | 192 kts | 343° |
| 2026-05-05 06:47 | 42.42571 | -83.59822 | 7021 ft | 190 kts | 341° |
| 2026-05-05 06:48 | 42.43874 | -83.60139 | 7035 ft | 191 kts | 341° |
| 2026-05-05 06:48 | 42.45187 | -83.60460 | 7028 ft | 192 kts | 340° |
| 2026-05-05 06:48 | 42.46506 | -83.60787 | 7028 ft | 193 kts | 340° |
| 2026-05-05 06:48 | 42.47826 | -83.61113 | 7026 ft | 193 kts | 340° |
| 2026-05-05 06:49 | 42.49150 | -83.61439 | 7024 ft | 193 kts | 340° |
| 2026-05-05 06:49 | 42.50474 | -83.61764 | 7023 ft | 193 kts | 340° |
| 2026-05-05 06:49 | 42.51795 | -83.62090 | 7019 ft | 192 kts | 340° |
| 2026-05-05 06:49 | 42.53112 | -83.62414 | 7010 ft | 192 kts | 340° |
| 2026-05-05 06:50 | 42.54433 | -83.62740 | 7007 ft | 193 kts | 340° |
| 2026-05-05 06:50 | 42.55753 | -83.63066 | 7005 ft | 192 kts | 340° |
| 2026-05-05 06:50 | 42.57069 | -83.63390 | 7006 ft | 192 kts | 340° |
| 2026-05-05 06:50 | 42.58370 | -83.63712 | 7006 ft | 193 kts | 340° |
| 2026-05-05 06:51 | 42.59691 | -83.64038 | 7005 ft | 193 kts | 340° |
| 2026-05-05 06:51 | 42.61015 | -83.64365 | 6994 ft | 193 kts | 340° |
| 2026-05-05 06:51 | 42.62348 | -83.64692 | 6502 ft | 192 kts | 341° |
| 2026-05-05 06:51 | 42.63625 | -83.64996 | 6044 ft | 181 kts | 340° |
| 2026-05-05 06:52 | 42.64828 | -83.65290 | 5710 ft | 171 kts | 339° |
| 2026-05-05 06:52 | 42.65972 | -83.65576 | 5380 ft | 164 kts | 339° |
| 2026-05-05 06:52 | 42.67078 | -83.65851 | 5055 ft | 159 kts | 339° |
| 2026-05-05 06:52 | 42.68164 | -83.66127 | 4735 ft | 161 kts | 339° |
| 2026-05-05 06:53 | 42.69284 | -83.66410 | 4416 ft | 165 kts | 339° |
| 2026-05-05 06:53 | 42.70422 | -83.66690 | 4087 ft | 167 kts | 339° |
| 2026-05-05 06:53 | 42.71551 | -83.66970 | 3766 ft | 167 kts | 339° |
| 2026-05-05 06:53 | 42.72699 | -83.67253 | 3438 ft | 167 kts | 339° |
| 2026-05-05 06:54 | 42.73842 | -83.67535 | 3121 ft | 168 kts | 338° |
| 2026-05-05 06:54 | 42.74975 | -83.67812 | 2994 ft | 159 kts | 337° |
| 2026-05-05 06:54 | 42.76033 | -83.68072 | 2992 ft | 151 kts | 338° |
| 2026-05-05 06:54 | 42.77063 | -83.68334 | 2994 ft | 152 kts | 336° |
| 2026-05-05 06:55 | 42.78118 | -83.68605 | 2993 ft | 156 kts | 336° |
| 2026-05-05 06:55 | 42.79197 | -83.68873 | 2995 ft | 159 kts | 336° |
| 2026-05-05 06:55 | 42.80286 | -83.69143 | 2994 ft | 159 kts | 336° |
| 2026-05-05 06:55 | 42.81362 | -83.69431 | 2990 ft | 157 kts | 335° |
| 2026-05-05 06:56 | 42.82422 | -83.69770 | 2995 ft | 156 kts | 335° |
| 2026-05-05 06:56 | 42.83474 | -83.70121 | 2993 ft | 155 kts | 334° |
| 2026-05-05 06:56 | 42.84508 | -83.70456 | 3000 ft | 155 kts | 334° |
| 2026-05-05 06:56 | 42.85514 | -83.70907 | 3017 ft | 150 kts | 328° |
| 2026-05-05 06:57 | 42.86476 | -83.71405 | 3075 ft | 146 kts | 328° |
| 2026-05-05 06:57 | 42.87414 | -83.71908 | 3108 ft | 145 kts | 327° |
| 2026-05-05 06:57 | 42.88350 | -83.72357 | 3133 ft | 135 kts | 330° |
| 2026-05-05 06:57 | 42.89196 | -83.72691 | 3131 ft | 120 kts | 330° |
| 2026-05-05 06:58 | 42.89933 | -83.72953 | 3078 ft | 99 kts | 330° |
| 2026-05-05 06:58 | 42.90558 | -83.73185 | 2893 ft | 89 kts | 324° |
| 2026-05-05 06:58 | 42.91137 | -83.73451 | 2684 ft | 85 kts | 316° |
| 2026-05-05 06:58 | 42.91689 | -83.73772 | 2539 ft | 89 kts | 322° |
| 2026-05-05 06:59 | 42.92294 | -83.74051 | 2311 ft | 95 kts | 327° |
| 2026-05-05 06:59 | 42.92981 | -83.74219 | 1955 ft | 104 kts | 343° |
| 2026-05-05 06:59 | 42.93697 | -83.74244 | 1608 ft | 103 kts | 348° |
| 2026-05-05 06:59 | 42.94375 | -83.74270 | 1266 ft | 92 kts | 352° |
| 2026-05-05 07:00 | 42.95010 | -83.74301 | 1007 ft | 89 kts | 352° |
| 2026-05-05 07:00 | 42.95619 | -83.74317 | 791 ft | 83 kts | 355° |
| 2026-05-05 07:00 | 42.96031 | -83.74327 | 782 ft | 45 kts | 359° |
| 2026-05-05 07:00 | 42.96337 | -83.74326 | 782 ft | 42 kts | 359° |
| 2026-05-05 07:01 | 42.96610 | -83.74316 | 780 ft | 24 kts | 22° |
| 2026-05-05 07:01 | 42.96632 | -83.74234 | 780 ft | 0 kts | 87° |